createdAt,value
2019-02-23T00:01:22.260Z,102845.37
2019-02-23T00:06:30.287Z,102846.33
2019-02-23T00:11:36.391Z,102841.55
2019-02-23T00:16:42.553Z,102865.46
2019-02-23T00:21:48.210Z,102862.45
2019-02-23T00:26:53.510Z,102867.86
2019-02-23T00:31:58.787Z,102873.09
2019-02-23T00:37:03.866Z,102869.33
2019-02-23T00:42:11.846Z,102860.96
2019-02-23T00:47:16.905Z,102852.27
2019-02-23T00:52:22.718Z,102860.25
2019-02-23T00:57:31.300Z,102860.26
2019-02-23T01:02:36.911Z,102859.78
2019-02-23T01:07:52.840Z,102870.56
2019-02-23T01:13:02.135Z,102860.26
2019-02-23T01:18:13.082Z,102861.61
2019-02-23T01:23:20.466Z,102863.73
2019-02-23T01:28:29.513Z,102871.59
2019-02-23T01:33:35.673Z,102881.89
2019-02-23T01:38:43.134Z,102860.07
2019-02-23T01:43:48.242Z,102857.09
2019-02-23T01:48:54.383Z,102827.61
2019-02-23T01:54:00.248Z,102830.21
2019-02-23T01:59:05.963Z,102850.00
2019-02-23T02:04:11.154Z,102860.94
2019-02-23T02:09:18.422Z,102844.56
2019-02-23T02:14:24.158Z,102829.83
2019-02-23T02:19:30.202Z,102804.96
2019-02-23T02:24:38.524Z,102805.77
2019-02-23T02:29:44.034Z,102793.99
2019-02-23T02:34:50.512Z,102796.78
2019-02-23T02:39:56.909Z,102785.48
2019-02-23T02:45:02.140Z,102761.07
2019-02-23T02:50:08.652Z,102772.95
2019-02-23T02:55:15.454Z,102770.80
2019-02-23T03:00:21.845Z,102766.81
2019-02-23T03:05:27.254Z,102755.54
2019-02-23T03:10:36.438Z,102750.31
2019-02-23T03:15:42.653Z,102755.16
2019-02-23T03:20:48.261Z,102752.71
2019-02-23T03:25:53.753Z,102753.18
2019-02-23T03:30:59.109Z,102750.56
2019-02-23T03:36:04.457Z,102742.72
2019-02-23T03:41:09.483Z,102734.86
2019-02-23T03:46:14.583Z,102741.91
2019-02-23T03:51:19.695Z,102736.68
2019-02-23T03:56:24.821Z,102735.47
2019-02-23T04:01:29.929Z,102716.80
2019-02-23T04:06:34.913Z,102709.39
2019-02-23T04:11:40.029Z,102710.86
2019-02-23T04:16:45.138Z,102703.49
2019-02-23T04:21:50.625Z,102716.20
2019-02-23T04:26:55.696Z,102727.80
2019-02-23T04:32:00.838Z,102729.45
2019-02-23T04:37:06.015Z,102725.88
2019-02-23T04:42:11.139Z,102713.93
2019-02-23T04:47:16.330Z,102702.61
2019-02-23T04:52:21.461Z,102702.86
2019-02-23T04:57:50.678Z,102712.77
2019-02-23T05:02:55.811Z,102720.08
2019-02-23T05:08:00.891Z,102731.18
2019-02-23T05:13:06.037Z,102732.67
2019-02-23T05:18:11.197Z,102713.52
2019-02-23T05:23:21.346Z,102712.78
2019-02-23T05:28:26.421Z,102711.94
2019-02-23T05:33:31.464Z,102706.88
2019-02-23T05:38:36.489Z,102707.43
2019-02-23T05:43:42.167Z,102715.02
2019-02-23T05:48:47.265Z,102727.06
2019-02-23T05:53:52.501Z,102739.16
2019-02-23T05:58:57.749Z,102759.92
2019-02-23T06:04:02.899Z,102740.52
2019-02-23T06:09:08.248Z,102743.13
2019-02-23T06:14:13.638Z,102752.27
2019-02-23T06:19:19.099Z,102764.92
2019-02-23T06:24:28.094Z,102766.85
2019-02-23T06:29:33.343Z,102792.78
2019-02-23T06:34:38.459Z,102808.80
2019-02-23T06:39:44.023Z,102800.72
2019-02-23T06:44:50.039Z,102820.72
2019-02-23T06:49:55.347Z,102818.64
2019-02-23T06:55:00.631Z,102830.47
2019-02-23T07:00:07.104Z,102835.10
2019-02-23T07:05:12.800Z,102835.79
2019-02-23T07:10:17.995Z,102865.56
2019-02-23T07:15:23.213Z,102870.33
2019-02-23T07:20:29.047Z,102865.43
2019-02-23T07:25:34.321Z,102865.16
2019-02-23T07:30:39.491Z,102860.69
2019-02-23T07:35:47.371Z,102873.97
2019-02-23T07:40:54.808Z,102875.38
2019-02-23T07:46:00.061Z,102876.89
2019-02-23T07:51:05.177Z,102890.06
2019-02-23T07:56:10.463Z,102893.86
2019-02-23T08:01:15.670Z,102894.94
2019-02-23T08:06:20.755Z,102896.97
2019-02-23T08:11:26.569Z,102900.61
2019-02-23T08:16:33.639Z,102926.20
2019-02-23T08:21:43.195Z,102937.05
2019-02-23T08:26:51.215Z,102937.11
2019-02-23T08:31:58.889Z,102947.42
2019-02-23T08:37:04.875Z,102922.62
2019-02-23T08:42:11.201Z,102909.39
2019-02-23T08:47:20.064Z,102917.02
2019-02-23T08:52:25.562Z,102904.84
2019-02-23T08:57:31.367Z,102893.40
2019-02-23T09:02:36.579Z,102882.59
2019-02-23T09:07:41.938Z,102884.88
2019-02-23T09:12:47.118Z,102879.88
2019-02-23T09:17:55.152Z,102887.59
2019-02-23T09:23:02.527Z,102882.70
2019-02-23T09:28:12.038Z,102872.27
2019-02-23T09:33:17.331Z,102869.38
2019-02-23T09:38:24.195Z,102867.70
2019-02-23T09:43:31.170Z,102869.34
2019-02-23T09:48:39.807Z,102875.67
2019-02-23T09:53:45.249Z,102856.27
2019-02-23T09:58:51.019Z,102844.98
2019-02-23T10:04:01.849Z,102847.28
2019-02-23T10:09:08.390Z,102847.28
2019-02-23T10:14:13.571Z,102839.86
2019-02-23T10:19:18.823Z,102830.55
2019-02-23T10:24:24.145Z,102822.64
2019-02-23T10:29:30.099Z,102819.03
2019-02-23T10:34:35.411Z,102833.37
2019-02-23T10:39:40.441Z,102820.34
2019-02-23T10:44:45.713Z,102808.14
2019-02-23T10:49:50.757Z,102808.88
2019-02-23T10:54:55.892Z,102793.45
2019-02-23T11:00:01.059Z,102793.22
2019-02-23T11:05:09.651Z,102788.87
2019-02-23T11:10:15.262Z,102782.18
2019-02-23T11:15:22.261Z,102778.27
2019-02-23T11:20:27.909Z,102772.05
2019-02-23T11:25:33.525Z,102763.16
2019-02-23T11:30:38.655Z,102759.14
2019-02-23T11:35:43.818Z,102742.27
2019-02-23T11:40:48.857Z,102732.91
2019-02-23T11:45:53.937Z,102722.12
2019-02-23T11:51:00.607Z,102716.00
2019-02-23T11:56:05.907Z,102721.47
2019-02-23T12:01:11.723Z,102727.64
2019-02-23T12:06:17.265Z,102732.01
2019-02-23T12:11:22.309Z,102738.41
2019-02-23T12:16:27.827Z,102723.32
2019-02-23T12:21:33.099Z,102726.28
2019-02-23T12:26:39.829Z,102718.22
2019-02-23T12:31:45.417Z,102723.44
2019-02-23T12:36:51.338Z,102700.14
2019-02-23T12:41:59.721Z,102718.77
2019-02-23T12:47:05.213Z,102713.03
2019-02-23T12:52:10.283Z,102708.22
2019-02-23T12:57:18.179Z,102701.20
2019-02-23T13:02:23.477Z,102696.33
2019-02-23T13:07:29.303Z,102689.28
2019-02-23T13:13:18.565Z,102686.95
2019-02-23T13:19:29.379Z,102668.14
2019-02-23T13:25:06.725Z,102666.20
2019-02-23T13:30:59.044Z,102675.41
2019-02-23T13:36:45.407Z,102678.34
2019-02-23T13:42:16.315Z,102686.06
2019-02-23T13:47:59.433Z,102686.55
2019-02-23T13:53:37.249Z,102671.70
2019-02-23T13:59:07.735Z,102673.47
2019-02-23T14:04:51.857Z,102671.08
2019-02-23T14:10:32.869Z,102660.02
2019-02-23T14:16:19.339Z,102651.07
2019-02-23T14:22:08.792Z,102653.20
2019-02-23T14:27:51.019Z,102649.16
2019-02-23T14:33:32.141Z,102647.86
2019-02-23T14:38:57.855Z,102632.22
2019-02-23T14:44:35.264Z,102638.84
2019-02-23T14:50:24.391Z,102636.23
2019-02-23T14:56:05.377Z,102647.91
2019-02-23T15:01:47.815Z,102632.58
2019-02-23T15:07:20.107Z,102619.47
2019-02-23T15:13:06.479Z,102616.45
2019-02-23T15:19:01.923Z,102598.69
2019-02-23T15:25:00.334Z,102589.48
2019-02-23T15:30:16.873Z,102585.75
2019-02-23T15:35:43.855Z,102569.94
2019-02-23T15:40:52.223Z,102575.54
2019-02-23T15:46:08.788Z,102569.84
2019-02-23T15:51:13.914Z,102573.69
2019-02-23T15:56:18.980Z,102580.17
2019-02-23T16:01:25.697Z,102601.89
2019-02-23T16:06:31.987Z,102604.62
2019-02-23T16:11:39.359Z,102610.27
2019-02-23T16:16:47.301Z,102614.01
2019-02-23T16:21:52.967Z,102612.33
2019-02-23T16:27:00.049Z,102607.36
2019-02-23T16:32:05.996Z,102609.20
2019-02-23T16:37:11.699Z,102609.97
2019-02-23T16:42:17.381Z,102602.70
2019-02-23T16:47:29.877Z,102611.31
2019-02-23T16:52:35.265Z,102608.39
2019-02-23T16:57:45.886Z,102612.61
2019-02-23T17:02:50.970Z,102613.28
2019-02-23T17:07:56.877Z,102628.25
2019-02-23T17:13:02.111Z,102611.23
2019-02-23T17:18:07.219Z,102604.59
2019-02-23T17:23:12.299Z,102609.69
2019-02-23T17:28:17.442Z,102609.75
2019-02-23T17:33:22.924Z,102615.45
2019-02-23T17:38:28.073Z,102619.36
2019-02-23T17:43:34.235Z,102613.28
2019-02-23T17:48:39.358Z,102620.03
2019-02-23T17:53:44.562Z,102614.67
2019-02-23T17:58:49.758Z,102610.02
2019-02-23T18:03:54.870Z,102594.72
2019-02-23T18:09:01.153Z,102596.97
2019-02-23T18:14:07.365Z,102588.48
2019-02-23T18:19:12.513Z,102579.91
2019-02-23T18:24:17.718Z,102582.55
2019-02-23T18:29:22.954Z,102585.41
2019-02-23T18:34:28.253Z,102586.59
2019-02-23T18:39:33.510Z,102573.67
2019-02-23T18:44:38.810Z,102547.21
2019-02-23T18:49:43.871Z,102559.53
2019-02-23T18:54:49.093Z,102553.88
2019-02-23T18:59:54.220Z,102549.80
2019-02-23T19:04:59.894Z,102558.53
2019-02-23T19:10:05.578Z,102551.44
2019-02-23T19:15:12.688Z,102557.89
2019-02-23T19:20:17.813Z,102550.98
2019-02-23T19:25:23.299Z,102557.62
2019-02-23T19:30:30.925Z,102551.10
2019-02-23T19:35:36.867Z,102545.06
2019-02-23T19:40:46.463Z,102543.86
2019-02-23T19:45:52.138Z,102544.45
2019-02-23T19:51:05.018Z,102546.15
2019-02-23T19:56:20.400Z,102539.44
2019-02-23T20:01:25.882Z,102531.08
2019-02-23T20:06:31.621Z,102531.94
2019-02-23T20:11:38.849Z,102525.95
2019-02-23T20:16:47.792Z,102527.51
2019-02-23T20:21:55.073Z,102523.80
2019-02-23T20:27:06.616Z,102528.23
2019-02-23T20:32:14.954Z,102529.55
2019-02-23T20:37:24.383Z,102526.30
2019-02-23T20:42:36.021Z,102526.96
2019-02-23T20:47:43.036Z,102537.67
2019-02-23T20:52:48.461Z,102529.59
2019-02-23T20:57:59.662Z,102528.95
2019-02-23T21:03:07.486Z,102535.75
2019-02-23T21:08:14.114Z,102528.91
2019-02-23T21:13:19.222Z,102533.55
2019-02-23T21:18:24.239Z,102529.05
2019-02-23T21:23:32.775Z,102519.48
2019-02-23T21:28:38.402Z,102525.30
2019-02-23T21:33:46.794Z,102523.23
2019-02-23T21:38:52.972Z,102513.38
2019-02-23T21:44:00.256Z,102520.80
2019-02-23T21:49:05.446Z,102514.09
2019-02-23T21:54:13.583Z,102506.58
2019-02-23T21:59:21.588Z,102493.67
2019-02-23T22:04:27.201Z,102491.28
2019-02-23T22:09:32.341Z,102492.50
2019-02-23T22:14:41.031Z,102493.16
2019-02-23T22:19:49.814Z,102494.80
2019-02-23T22:24:56.153Z,102494.70
2019-02-23T22:30:02.223Z,102496.38
2019-02-23T22:35:12.357Z,102494.05
2019-02-23T22:40:19.162Z,102495.86
2019-02-23T22:45:24.248Z,102496.89
2019-02-23T22:50:29.471Z,102494.13
2019-02-23T22:55:34.662Z,102495.15
2019-02-23T23:01:02.778Z,102493.18
2019-02-23T23:06:11.581Z,102485.30
2019-02-23T23:11:17.284Z,102484.36
2019-02-23T23:16:22.664Z,102484.25
2019-02-23T23:21:29.091Z,102487.75
2019-02-23T23:26:36.678Z,102491.36
2019-02-23T23:31:43.334Z,102494.20
2019-02-23T23:36:48.982Z,102486.36
2019-02-23T23:41:54.578Z,102482.24
2019-02-23T23:47:03.310Z,102488.48
2019-02-23T23:52:08.554Z,102481.26
2019-02-23T23:57:14.933Z,102466.02
